Rosser, Texas
Current Conditions -  °F | °C
As of 1:55 AM on Friday 31 Oct 2014 (Local Time) from KLNC Reporting Station
Clear Clear  
Wind Chill: 60°   Ceiling: Unl
Heat Index: 60°   Visibility: 10mi
Dew Point: 47°   Wind: 7mph
Humidity: 62%   Direction: 340°NNW
Pressure: 30.18"   Gusts: NA
Location:  32.46°N, 96.45°W
Report Text: KLNC 310655Z AUTO 34006KT 10SM CLR 15/08 A3018 RMK AO2 T01530081
Loading
Personal Weather Stations






























Interactive Weather Map
Tropical Storm Tracking
New forecast layout! Learn more

10-Day Weather Forecast

Advertisements
Track Severe Weather on mobile